aviador You're here:

RKTU Decoded Metar

CHONGJU in KOREA
Report Time2018-01-18 09:00:00
UTC Time2018-01-18 10:08:16
Flight Rules Old
Wind250° at 05 kt
W.Decomp.*RWY 24: 4.8 kt HW 1.5 kt RCW
W.Rank250° ranks 3
Current wind is below 250° avg. (5.0)
Visibility8000 m
Phenomena:N/A
Clouds:Few 030 Hf
Broken 200 Hf
Expected CloudBase > 2,000 ft AGL from Temp-Dew spread
Ceiling20,000 ft
Temp02°C (ISA -13)
Dew Point-3°C (70% RH)
AAT-2.2°C
QNH1024 hPa
Density Alt-1,617 ft
Elevation217 ft
Report Wrong Elevation
Raw Report
METAR RKTU 180900Z 25005KT 8000 FEW030 BKN200 02/M03 Q1024 NOSIG=####018002953####
SAUS20 KNKA 180917

Extra information for RKTU:More info

Metar Taf Metar & Taf Last 4 Metars F.Rules Stats Wind Profile Meteogram Temp Stats Airport Information Weather charts Add Link Nearby VenuesMetar ALERT Operation Metar Decoded Social comments